createdAt,value
2018-05-08T00:00:40.221Z,54.17
2018-05-08T00:01:39.865Z,54.75
2018-05-08T00:02:39.859Z,55.04
2018-05-08T00:03:39.847Z,55.04
2018-05-08T00:04:39.842Z,54.94
2018-05-08T00:05:39.833Z,55.23
2018-05-08T00:06:39.847Z,55.04
2018-05-08T00:07:39.824Z,55.13
2018-05-08T00:08:39.837Z,54.75
2018-05-08T00:09:39.830Z,54.91
2018-05-08T00:10:39.820Z,54.82
2018-05-08T00:11:39.774Z,54.82
2018-05-08T00:12:39.772Z,54.53
2018-05-08T00:13:39.764Z,54.53
2018-05-08T00:14:39.769Z,54.72
2018-05-08T00:15:39.737Z,54.91
2018-05-08T00:16:39.746Z,54.82
2018-05-08T00:17:40.124Z,54.91
2018-05-08T00:18:39.711Z,54.82
2018-05-08T00:19:39.717Z,54.63
2018-05-08T00:20:39.693Z,54.82
2018-05-08T00:21:39.702Z,54.53
2018-05-08T00:22:39.726Z,54.44
2018-05-08T00:23:39.683Z,54.15
2018-05-08T00:24:39.664Z,54.24
2018-05-08T00:25:39.723Z,54.15
2018-05-08T00:26:39.652Z,54.44
2018-05-08T00:27:39.652Z,55.11
2018-05-08T00:28:39.647Z,55.21
2018-05-08T00:29:39.638Z,55.11
2018-05-08T00:30:39.631Z,55.11
2018-05-08T00:31:39.637Z,55.21
2018-05-08T00:32:39.606Z,54.63
2018-05-08T00:33:39.589Z,54.82
2018-05-08T00:34:39.588Z,54.91
2018-05-08T00:35:39.580Z,54.82
2018-05-08T00:36:39.664Z,55.21
2018-05-08T00:37:39.566Z,54.72
2018-05-08T00:38:39.549Z,54.82
2018-05-08T00:39:39.539Z,54.72
2018-05-08T00:40:39.536Z,54.82
2018-05-08T00:41:39.524Z,55.56
2018-05-08T00:42:39.538Z,55.36
2018-05-08T00:43:39.523Z,55.56
2018-05-08T00:44:39.508Z,55.85
2018-05-08T00:45:39.498Z,55.75
2018-05-08T00:46:39.474Z,56.42
2018-05-08T00:47:39.513Z,56.32
2018-05-08T00:48:39.468Z,56.32
2018-05-08T00:49:39.458Z,56.90
2018-05-08T00:50:39.456Z,56.61
2018-05-08T00:51:39.446Z,56.77
2018-05-08T00:52:39.638Z,57.26
2018-05-08T00:53:39.431Z,57.64
2018-05-08T00:54:39.443Z,57.54
2018-05-08T00:55:39.409Z,56.97
2018-05-08T00:56:39.395Z,57.35
2018-05-08T00:57:39.431Z,57.73
2018-05-08T00:58:39.385Z,57.73
2018-05-08T00:59:39.370Z,58.40
2018-05-08T01:00:39.362Z,58.31
2018-05-08T01:01:39.381Z,58.88
2018-05-08T01:02:39.348Z,58.40
2018-05-08T01:03:39.340Z,58.69
2018-05-08T01:04:39.384Z,58.88
2018-05-08T01:05:39.307Z,58.69
2018-05-08T01:06:39.301Z,58.69
2018-05-08T01:07:39.295Z,58.88
2018-05-08T01:08:39.298Z,59.27
2018-05-08T01:09:39.288Z,59.45
2018-05-08T01:10:39.302Z,59.27
2018-05-08T01:11:39.318Z,59.55
2018-05-08T01:12:39.265Z,59.45
2018-05-08T01:13:39.245Z,59.45
2018-05-08T01:14:39.234Z,58.79
2018-05-08T01:15:39.275Z,58.79
2018-05-08T01:16:39.229Z,58.88
2018-05-08T01:17:39.255Z,58.88
2018-05-08T01:18:39.203Z,58.69
2018-05-08T01:19:39.196Z,58.40
2018-05-08T01:20:39.194Z,58.59
2018-05-08T01:21:39.224Z,58.40
2018-05-08T01:22:39.161Z,58.31
2018-05-08T01:23:39.163Z,57.73
2018-05-08T01:24:39.147Z,58.05
2018-05-08T01:25:39.169Z,57.09
2018-05-08T01:26:39.128Z,57.09
2018-05-08T01:27:39.183Z,57.19
2018-05-08T01:28:39.126Z,56.32
2018-05-08T01:29:39.117Z,56.42
2018-05-08T01:30:39.088Z,56.71
2018-05-08T01:31:39.236Z,56.81
2018-05-08T01:32:39.073Z,56.42
2018-05-08T01:33:39.082Z,56.04
2018-05-08T01:34:39.054Z,55.85
2018-05-08T01:35:39.058Z,55.85
2018-05-08T01:36:39.046Z,55.56
2018-05-08T01:37:39.067Z,55.18
2018-05-08T01:38:39.016Z,54.60
2018-05-08T01:39:39.043Z,54.79
2018-05-08T01:40:38.996Z,54.70
2018-05-08T01:41:38.993Z,54.32
2018-05-08T01:42:38.992Z,54.41
2018-05-08T01:43:39.170Z,54.12
2018-05-08T01:44:38.974Z,54.22
2018-05-08T01:45:38.963Z,54.22
2018-05-08T01:46:38.951Z,54.32
2018-05-08T01:47:38.961Z,54.22
2018-05-08T01:48:38.938Z,54.70
2018-05-08T01:49:38.950Z,54.63
2018-05-08T01:50:38.925Z,54.44
2018-05-08T01:51:38.901Z,53.86
2018-05-08T01:52:38.897Z,53.67
2018-05-08T01:53:39.054Z,53.38
2018-05-08T01:54:38.893Z,53.48
2018-05-08T01:55:38.860Z,53.58
2018-05-08T01:56:38.860Z,53.77
2018-05-08T01:57:38.849Z,53.19
2018-05-08T01:58:38.834Z,53.28
2018-05-08T01:59:38.870Z,53.28
2018-05-08T02:00:38.838Z,53.00
2018-05-08T02:01:38.819Z,53.09
2018-05-08T02:02:38.818Z,53.00
2018-05-08T02:03:38.808Z,53.00
2018-05-08T02:04:38.969Z,53.00
2018-05-08T02:05:38.782Z,53.00
2018-05-08T02:06:38.777Z,52.71
2018-05-08T02:07:38.767Z,53.19
2018-05-08T02:08:38.751Z,53.09
2018-05-08T02:09:38.747Z,53.00
2018-05-08T02:10:38.751Z,52.91
2018-05-08T02:11:38.727Z,52.81
2018-05-08T02:12:38.731Z,52.71
2018-05-08T02:13:38.703Z,52.52
2018-05-08T02:14:38.708Z,52.62
2018-05-08T02:15:38.688Z,52.81
2018-05-08T02:16:38.691Z,52.14
2018-05-08T02:17:38.674Z,52.23
2018-05-08T02:18:38.660Z,52.33
2018-05-08T02:19:38.658Z,52.33
2018-05-08T02:20:38.723Z,52.23
2018-05-08T02:21:38.632Z,52.81
2018-05-08T02:22:38.640Z,52.91
2018-05-08T02:23:38.617Z,53.00
2018-05-08T02:24:38.607Z,52.81
2018-05-08T02:25:38.609Z,52.81
2018-05-08T02:26:38.664Z,52.62
2018-05-08T02:27:38.597Z,52.71
2018-05-08T02:28:38.575Z,52.71
2018-05-08T02:29:38.578Z,52.71
2018-05-08T02:30:38.570Z,52.81
2018-05-08T02:31:38.553Z,53.86
2018-05-08T02:32:38.561Z,53.93
2018-05-08T02:33:38.544Z,54.12
2018-05-08T02:34:38.523Z,54.41
2018-05-08T02:35:38.513Z,54.22
2018-05-08T02:36:38.516Z,54.22
2018-05-08T02:37:38.666Z,54.50
2018-05-08T02:38:38.493Z,54.70
2018-05-08T02:39:38.483Z,54.89
2018-05-08T02:40:38.461Z,54.99
2018-05-08T02:41:38.464Z,55.08
2018-05-08T02:42:38.459Z,55.65
2018-05-08T02:43:38.496Z,56.04
2018-05-08T02:44:38.447Z,56.04
2018-05-08T02:45:38.418Z,55.75
2018-05-08T02:46:38.460Z,55.85
2018-05-08T02:47:38.439Z,55.85
2018-05-08T02:48:38.402Z,55.46
2018-05-08T02:49:38.393Z,54.79
2018-05-08T02:50:38.379Z,54.70
2018-05-08T02:51:38.381Z,54.50
2018-05-08T02:52:38.467Z,54.41
2018-05-08T02:53:38.355Z,54.50
2018-05-08T02:54:38.343Z,54.12
2018-05-08T02:55:38.337Z,54.41
2018-05-08T02:56:38.332Z,54.60
2018-05-08T02:57:38.357Z,54.22
2018-05-08T02:58:38.313Z,54.41
2018-05-08T02:59:38.328Z,54.32
2018-05-08T03:00:38.327Z,54.22
2018-05-08T03:01:38.280Z,55.18
2018-05-08T03:02:38.281Z,54.89
2018-05-08T03:03:38.281Z,55.08
2018-05-08T03:04:38.258Z,54.79
2018-05-08T03:05:38.284Z,54.32
2018-05-08T03:06:38.231Z,54.70
2018-05-08T03:07:38.229Z,54.32
2018-05-08T03:08:38.290Z,54.50
2018-05-08T03:09:38.248Z,54.50
2018-05-08T03:10:38.211Z,54.41
2018-05-08T03:11:38.185Z,54.22
2018-05-08T03:12:38.192Z,54.22
2018-05-08T03:13:38.168Z,54.22
2018-05-08T03:14:38.183Z,54.41
2018-05-08T03:15:38.162Z,54.12
2018-05-08T03:16:38.190Z,54.22
2018-05-08T03:17:38.140Z,54.22
2018-05-08T03:18:38.122Z,54.70
2018-05-08T03:19:38.127Z,54.32
2018-05-08T03:20:38.765Z,54.22
2018-05-08T03:21:38.122Z,54.12
2018-05-08T03:22:38.096Z,54.32
2018-05-08T03:23:38.089Z,54.32
2018-05-08T03:24:38.146Z,54.22
2018-05-08T03:25:38.074Z,53.74
2018-05-08T03:26:38.051Z,54.22
2018-05-08T03:27:38.047Z,54.12
2018-05-08T03:28:38.047Z,54.12
2018-05-08T03:29:38.024Z,54.22
2018-05-08T03:30:38.069Z,54.32
2018-05-08T03:31:38.017Z,54.32
2018-05-08T03:32:38.015Z,54.48
2018-05-08T03:33:37.996Z,54.48
2018-05-08T03:34:38.033Z,54.32
2018-05-08T03:35:38.002Z,54.38
2018-05-08T03:36:37.963Z,54.48
2018-05-08T03:37:37.962Z,54.28
2018-05-08T03:38:37.951Z,54.41
2018-05-08T03:39:37.932Z,54.48
2018-05-08T03:40:37.974Z,54.10
2018-05-08T03:41:37.924Z,54.38
2018-05-08T03:42:37.901Z,54.38
2018-05-08T03:43:37.898Z,54.19
2018-05-08T03:44:37.908Z,54.28
2018-05-08T03:45:38.028Z,54.28
2018-05-08T03:46:37.969Z,54.67
2018-05-08T03:47:37.859Z,54.86
2018-05-08T03:48:37.852Z,54.96
2018-05-08T03:49:37.849Z,55.15
2018-05-08T03:50:37.852Z,54.86
2018-05-08T03:51:37.837Z,54.96
2018-05-08T03:52:37.809Z,54.86
2018-05-08T03:53:37.817Z,54.96
2018-05-08T03:54:37.794Z,54.96
2018-05-08T03:55:37.791Z,54.77
2018-05-08T03:56:37.810Z,54.57
2018-05-08T03:57:37.774Z,55.05
2018-05-08T03:58:37.774Z,55.34
2018-05-08T03:59:37.756Z,55.53
2018-05-08T04:00:37.891Z,55.24
2018-05-08T04:01:37.723Z,55.53
2018-05-08T04:02:37.722Z,55.34
2018-05-08T04:03:37.720Z,55.24
2018-05-08T04:04:37.718Z,55.44
2018-05-08T04:05:37.711Z,55.34
2018-05-08T04:06:37.698Z,55.34
2018-05-08T04:07:37.671Z,54.96
2018-05-08T04:08:37.668Z,54.70
2018-05-08T04:09:37.663Z,54.67
2018-05-08T04:10:37.644Z,54.67
2018-05-08T04:11:37.717Z,54.67
2018-05-08T04:12:38.168Z,54.79
2018-05-08T04:13:37.620Z,54.60
2018-05-08T04:14:37.630Z,54.67
2018-05-08T04:15:37.603Z,54.96
2018-05-08T04:16:39.732Z,55.15
2018-05-08T04:17:37.637Z,55.53
2018-05-08T04:18:37.571Z,55.63
2018-05-08T04:19:37.570Z,55.56
2018-05-08T04:20:37.658Z,55.27
2018-05-08T04:21:37.573Z,55.34
2018-05-08T04:22:37.570Z,55.34
2018-05-08T04:23:37.551Z,56.10
2018-05-08T04:24:37.517Z,56.68
2018-05-08T04:25:37.508Z,56.20
2018-05-08T04:26:37.508Z,56.01
2018-05-08T04:27:37.527Z,56.01
2018-05-08T04:28:37.645Z,56.68
2018-05-08T04:29:37.467Z,56.49
2018-05-08T04:30:37.480Z,56.97
2018-05-08T04:31:37.446Z,57.16
2018-05-08T04:32:42.521Z,57.06
2018-05-08T04:33:37.445Z,57.16
2018-05-08T04:34:37.464Z,57.16
2018-05-08T04:35:38.180Z,57.06
2018-05-08T04:36:37.410Z,57.06
2018-05-08T04:37:37.407Z,57.26
2018-05-08T04:38:37.388Z,57.16
2018-05-08T04:39:37.421Z,57.83
2018-05-08T04:40:37.377Z,57.16
2018-05-08T04:41:37.355Z,57.16
2018-05-08T04:42:37.350Z,57.26
2018-05-08T04:43:37.397Z,57.35
2018-05-08T04:44:37.515Z,57.06
2018-05-08T04:45:37.326Z,57.83
2018-05-08T04:46:37.500Z,57.73
2018-05-08T04:47:37.359Z,57.57
2018-05-08T04:48:37.303Z,57.45
2018-05-08T04:49:37.659Z,57.73
2018-05-08T04:50:37.322Z,57.95
2018-05-08T04:51:37.270Z,57.48
2018-05-08T04:52:37.270Z,57.19
2018-05-08T04:53:37.258Z,56.90
2018-05-08T04:54:37.256Z,57.86
2018-05-08T04:55:37.271Z,57.67
2018-05-08T04:56:37.238Z,57.86
2018-05-08T04:57:37.226Z,57.95
2018-05-08T04:58:37.207Z,57.76
2018-05-08T04:59:37.205Z,57.57
2018-05-08T05:00:37.562Z,57.28
2018-05-08T05:01:37.176Z,57.28
2018-05-08T05:02:37.234Z,57.38
2018-05-08T05:03:37.161Z,57.86
2018-05-08T05:04:37.158Z,57.76
2018-05-08T05:05:37.153Z,58.34
2018-05-08T05:06:37.143Z,58.62
2018-05-08T05:07:37.133Z,58.15
2018-05-08T05:08:37.124Z,58.34
2018-05-08T05:09:37.113Z,58.62
2018-05-08T05:10:37.104Z,58.72
2018-05-08T05:11:37.244Z,58.72
2018-05-08T05:12:37.086Z,58.72
2018-05-08T05:13:37.062Z,58.72
2018-05-08T05:14:37.064Z,58.72
2018-05-08T05:15:37.209Z,58.34
2018-05-08T05:16:37.138Z,58.53
2018-05-08T05:17:37.080Z,58.44
2018-05-08T05:18:37.033Z,58.34
2018-05-08T05:19:37.024Z,58.56
2018-05-08T05:20:37.040Z,58.91
2018-05-08T05:21:37.022Z,58.84
2018-05-08T05:22:37.047Z,59.30
2018-05-08T05:23:36.989Z,59.61
2018-05-08T05:24:36.978Z,59.33
2018-05-08T05:25:36.998Z,59.61
2018-05-08T05:26:36.958Z,60.00
2018-05-08T05:27:36.953Z,59.61
2018-05-08T05:28:36.954Z,59.97
2018-05-08T05:29:36.931Z,59.87
2018-05-08T05:30:36.926Z,59.77
2018-05-08T05:31:36.942Z,60.09
2018-05-08T05:32:37.245Z,60.09
2018-05-08T05:33:36.906Z,59.71
2018-05-08T05:34:36.913Z,59.90
2018-05-08T05:35:36.879Z,59.23
2018-05-08T05:36:36.879Z,59.52
2018-05-08T05:37:36.884Z,59.61
2018-05-08T05:38:36.918Z,59.42
2018-05-08T05:39:37.267Z,59.33
2018-05-08T05:40:36.929Z,59.33
2018-05-08T05:41:36.823Z,59.52
2018-05-08T05:42:36.874Z,58.84
2018-05-08T05:43:36.873Z,58.87
2018-05-08T05:44:36.802Z,58.69
2018-05-08T05:45:36.810Z,58.69
2018-05-08T05:46:36.816Z,58.39
2018-05-08T05:47:36.951Z,58.97
2018-05-08T05:48:36.769Z,59.06
2018-05-08T05:49:36.764Z,58.69
2018-05-08T05:50:37.196Z,58.87
2018-05-08T05:51:36.737Z,58.59
2018-05-08T05:52:36.728Z,58.78
2018-05-08T05:53:36.721Z,58.69
2018-05-08T05:54:36.718Z,57.72
2018-05-08T05:55:36.705Z,57.63
2018-05-08T05:56:36.773Z,57.82
2018-05-08T05:57:36.696Z,57.92
2018-05-08T05:58:36.690Z,58.71
2018-05-08T05:59:37.207Z,57.82
2018-05-08T06:00:36.666Z,57.24
2018-05-08T06:01:36.667Z,57.65
2018-05-08T06:02:36.681Z,57.28
2018-05-08T06:03:36.649Z,57.37
2018-05-08T06:04:36.650Z,57.75
2018-05-08T06:05:36.628Z,57.65
2018-05-08T06:06:36.622Z,57.08
2018-05-08T06:07:36.634Z,57.08
2018-05-08T06:08:36.610Z,56.98
2018-05-08T06:09:36.598Z,56.70
2018-05-08T06:10:36.603Z,56.02
2018-05-08T06:11:36.605Z,56.51
2018-05-08T06:12:36.677Z,56.79
2018-05-08T06:13:36.590Z,56.92
2018-05-08T06:14:36.557Z,57.65
2018-05-08T06:15:36.555Z,57.40
2018-05-08T06:16:36.540Z,56.82
2018-05-08T06:17:36.527Z,55.96
2018-05-08T06:18:36.760Z,56.24
2018-05-08T06:19:36.511Z,55.38
2018-05-08T06:20:36.509Z,55.10
2018-05-08T06:21:36.509Z,55.10
2018-05-08T06:22:36.501Z,54.42
2018-05-08T06:23:36.488Z,54.42
2018-05-08T06:24:36.490Z,54.33
2018-05-08T06:25:36.476Z,55.10
2018-05-08T06:26:36.500Z,55.19
2018-05-08T06:27:36.545Z,55.29
2018-05-08T06:28:36.544Z,55.00
2018-05-08T06:29:36.770Z,54.90
2018-05-08T06:30:36.437Z,54.06
2018-05-08T06:31:36.427Z,54.35
2018-05-08T06:32:36.416Z,54.74
2018-05-08T06:33:36.419Z,55.12
2018-05-08T06:34:36.393Z,54.93
2018-05-08T06:35:36.431Z,54.55
2018-05-08T06:36:36.412Z,53.78
2018-05-08T06:37:36.378Z,53.97
2018-05-08T06:38:36.369Z,53.78
2018-05-08T06:39:36.481Z,53.30
2018-05-08T06:40:36.364Z,52.91
2018-05-08T06:41:36.385Z,53.11
2018-05-08T06:42:36.338Z,52.91
2018-05-08T06:43:36.344Z,53.68
2018-05-08T06:44:37.229Z,53.49
2018-05-08T06:45:36.318Z,52.14
2018-05-08T06:46:36.433Z,52.26
2018-05-08T06:47:36.307Z,52.43
2018-05-08T06:48:36.287Z,53.42
2018-05-08T06:49:36.299Z,54.09
2018-05-08T06:50:36.275Z,54.25
2018-05-08T06:51:36.278Z,53.78
2018-05-08T06:52:36.293Z,52.94
2018-05-08T06:53:36.265Z,53.32
2018-05-08T06:54:36.741Z,54.09
2018-05-08T06:55:36.244Z,54.57
2018-05-08T06:56:36.490Z,54.47
2018-05-08T06:57:36.226Z,55.24
2018-05-08T06:58:36.229Z,55.02
2018-05-08T06:59:36.226Z,55.15
2018-05-08T07:00:36.211Z,54.67
2018-05-08T07:01:36.217Z,54.28
2018-05-08T07:02:36.288Z,54.47
2018-05-08T07:03:36.183Z,54.86
2018-05-08T07:04:36.266Z,55.24
2018-05-08T07:05:36.175Z,54.38
2018-05-08T07:06:36.169Z,54.28
2018-05-08T07:07:36.161Z,54.47
2018-05-08T07:08:36.150Z,53.90
2018-05-08T07:09:36.283Z,54.57
2018-05-08T07:10:36.141Z,55.18
2018-05-08T07:11:36.734Z,54.67
2018-05-08T07:12:36.144Z,54.47
2018-05-08T07:13:36.130Z,54.86
2018-05-08T07:14:36.162Z,55.73
2018-05-08T07:15:36.125Z,55.73
2018-05-08T07:16:36.106Z,55.76
2018-05-08T07:17:36.091Z,55.82
2018-05-08T07:18:36.080Z,55.82
2018-05-08T07:19:36.108Z,55.76
2018-05-08T07:20:36.079Z,56.04
2018-05-08T07:21:36.074Z,55.27
2018-05-08T07:22:36.067Z,54.69
2018-05-08T07:23:36.072Z,54.12
2018-05-08T07:24:36.065Z,53.74
2018-05-08T07:25:36.034Z,53.74
2018-05-08T07:26:36.070Z,54.02
2018-05-08T07:27:36.072Z,54.12
2018-05-08T07:28:36.137Z,54.50
2018-05-08T07:29:36.017Z,54.31
2018-05-08T07:30:36.013Z,54.89
2018-05-08T07:31:35.999Z,54.99
2018-05-08T07:32:36.109Z,54.99
2018-05-08T07:33:35.994Z,54.99
2018-05-08T07:34:35.974Z,54.79
2018-05-08T07:35:35.971Z,54.60
2018-05-08T07:36:36.109Z,54.50
2018-05-08T07:37:35.964Z,54.31
2018-05-08T07:38:35.947Z,54.02
2018-05-08T07:39:35.962Z,54.02
2018-05-08T07:40:36.152Z,53.19
2018-05-08T07:41:35.954Z,53.28
2018-05-08T07:42:35.956Z,53.16
2018-05-08T07:43:35.914Z,53.09
2018-05-08T07:44:35.923Z,53.47
2018-05-08T07:45:35.914Z,53.38
2018-05-08T07:46:35.901Z,53.96
2018-05-08T07:47:36.279Z,53.57
2018-05-08T07:48:35.891Z,54.24
2018-05-08T07:49:35.878Z,54.24
2018-05-08T07:50:35.883Z,54.34
2018-05-08T07:51:35.877Z,53.76
2018-05-08T07:52:35.872Z,53.86
2018-05-08T07:53:35.871Z,53.19
2018-05-08T07:54:35.877Z,53.57
2018-05-08T07:55:35.854Z,52.92
2018-05-08T07:56:35.846Z,53.28
2018-05-08T07:57:35.878Z,53.38
2018-05-08T07:58:35.861Z,52.89
2018-05-08T07:59:35.852Z,53.86
2018-05-08T08:00:35.829Z,53.78
2018-05-08T08:01:35.809Z,53.76
2018-05-08T08:02:35.851Z,53.28
2018-05-08T08:03:35.800Z,52.25
2018-05-08T08:04:35.782Z,52.15
2018-05-08T08:05:35.909Z,51.76
2018-05-08T08:06:35.782Z,51.38
2018-05-08T08:07:35.872Z,51.96
2018-05-08T08:08:35.766Z,51.38
2018-05-08T08:09:35.765Z,51.09
2018-05-08T08:10:35.898Z,51.67
2018-05-08T08:11:35.743Z,51.86
2018-05-08T08:12:35.736Z,51.86
2018-05-08T08:13:35.749Z,51.67
2018-05-08T08:14:35.735Z,51.86
2018-05-08T08:15:35.732Z,51.57
2018-05-08T08:16:35.748Z,51.31
2018-05-08T08:17:35.730Z,51.70
2018-05-08T08:18:35.759Z,52.18
2018-05-08T08:19:35.713Z,51.50
2018-05-08T08:20:35.725Z,51.60
2018-05-08T08:21:35.723Z,52.08
2018-05-08T08:22:35.688Z,52.56
2018-05-08T08:23:35.801Z,51.98
2018-05-08T08:24:35.682Z,52.08
2018-05-08T08:25:36.353Z,51.70
2018-05-08T08:26:35.669Z,51.60
2018-05-08T08:27:35.663Z,51.98
2018-05-08T08:28:35.649Z,52.08
2018-05-08T08:29:35.720Z,52.18
2018-05-08T08:30:35.634Z,52.11
2018-05-08T08:31:35.666Z,51.43
2018-05-08T08:32:35.661Z,51.24
2018-05-08T08:33:35.818Z,51.05
2018-05-08T08:34:35.737Z,50.95
2018-05-08T08:35:35.667Z,50.95
2018-05-08T08:36:36.282Z,50.95
2018-05-08T08:37:35.607Z,50.95
2018-05-08T08:38:35.641Z,51.14
2018-05-08T08:39:35.587Z,50.66
2018-05-08T08:40:35.595Z,50.95
2018-05-08T08:41:35.590Z,50.59
2018-05-08T08:42:35.595Z,50.78
2018-05-08T08:43:35.713Z,51.17
2018-05-08T08:44:35.594Z,51.07
2018-05-08T08:45:35.554Z,50.98
2018-05-08T08:46:35.599Z,51.26
2018-05-08T08:47:35.644Z,50.69
2018-05-08T08:48:35.558Z,49.91
2018-05-08T08:49:35.639Z,49.73
2018-05-08T08:50:35.541Z,49.46
2018-05-08T08:51:35.573Z,49.07
2018-05-08T08:52:35.531Z,48.97
2018-05-08T08:53:36.276Z,48.30
2018-05-08T08:54:35.522Z,48.01
2018-05-08T08:55:35.543Z,48.59
2018-05-08T08:56:35.512Z,49.37
2018-05-08T08:57:36.289Z,48.88
2018-05-08T08:58:35.514Z,48.42
2018-05-08T08:59:35.534Z,48.13
2018-05-08T09:00:35.514Z,47.45
2018-05-08T09:01:35.496Z,46.49
2018-05-08T09:02:35.496Z,45.82
2018-05-08T09:03:35.492Z,45.07
2018-05-08T09:04:35.552Z,45.75
2018-05-08T09:05:35.547Z,45.84
2018-05-08T09:06:35.479Z,45.36
2018-05-08T09:07:35.467Z,46.51
2018-05-08T09:08:35.525Z,46.23
2018-05-08T09:09:35.491Z,45.84
2018-05-08T09:10:36.026Z,44.97
2018-05-08T09:11:35.456Z,45.07
2018-05-08T09:12:35.473Z,44.78
2018-05-08T09:13:35.506Z,45.00
2018-05-08T09:14:35.451Z,44.42
2018-05-08T09:15:35.493Z,44.22
2018-05-08T09:16:35.471Z,44.22
2018-05-08T09:17:35.632Z,44.22
2018-05-08T09:18:35.451Z,44.15
2018-05-08T09:19:35.440Z,43.37
2018-05-08T09:20:35.444Z,43.57
2018-05-08T09:21:35.466Z,43.57
2018-05-08T09:22:35.455Z,43.68
2018-05-08T09:23:35.438Z,43.59
2018-05-08T09:24:35.423Z,43.49
2018-05-08T09:25:35.463Z,43.20
2018-05-08T09:26:35.439Z,43.49
2018-05-08T09:27:35.541Z,43.41
2018-05-08T09:28:35.427Z,43.61
2018-05-08T09:29:35.424Z,42.93
2018-05-08T09:30:35.456Z,42.83
2018-05-08T09:31:35.419Z,42.65
2018-05-08T09:32:35.419Z,41.97
2018-05-08T09:33:35.575Z,42.37
2018-05-08T09:34:35.416Z,41.79
2018-05-08T09:35:35.438Z,40.92
2018-05-08T09:36:35.430Z,40.25
2018-05-08T09:37:35.431Z,40.07
2018-05-08T09:38:35.434Z,40.26
2018-05-08T09:39:35.437Z,40.63
2018-05-08T09:40:35.435Z,40.17
2018-05-08T09:41:35.435Z,40.26
2018-05-08T09:42:35.424Z,40.84
2018-05-08T09:43:35.481Z,41.04
2018-05-08T09:44:35.433Z,40.46
2018-05-08T09:45:35.436Z,40.38
2018-05-08T09:46:35.436Z,39.59
2018-05-08T09:47:35.433Z,39.70
2018-05-08T09:48:35.467Z,39.22
2018-05-08T09:49:35.451Z,39.70
2018-05-08T09:50:35.442Z,39.70
2018-05-08T09:51:35.448Z,39.32
2018-05-08T09:52:35.498Z,39.70
2018-05-08T09:53:35.486Z,38.93
2018-05-08T09:54:35.487Z,36.72
2018-05-08T09:55:35.454Z,36.33
2018-05-08T09:56:35.459Z,36.52
2018-05-08T09:57:35.464Z,35.57
2018-05-08T09:58:35.465Z,35.28
2018-05-08T09:59:35.502Z,35.67
2018-05-08T10:00:35.464Z,35.19
2018-05-08T10:01:35.475Z,35.57
2018-05-08T10:02:35.498Z,35.57
2018-05-08T10:03:35.502Z,35.69
2018-05-08T10:04:35.520Z,35.88
2018-05-08T10:05:35.494Z,35.78
2018-05-08T10:06:35.495Z,35.40
2018-05-08T10:07:35.499Z,35.98
2018-05-08T10:08:35.506Z,35.41
2018-05-08T10:09:35.538Z,34.74
2018-05-08T10:10:35.529Z,34.64
2018-05-08T10:11:35.525Z,34.44
2018-05-08T10:12:35.533Z,33.29
2018-05-08T10:13:35.536Z,32.91
2018-05-08T10:14:35.918Z,32.42
2018-05-08T10:15:35.546Z,32.44
2018-05-08T10:16:35.552Z,32.73
2018-05-08T10:17:35.558Z,31.95
2018-05-08T10:18:35.571Z,32.65
2018-05-08T10:19:35.564Z,31.10
2018-05-08T10:20:35.704Z,30.80
2018-05-08T10:21:35.576Z,30.80
2018-05-08T10:22:35.596Z,31.00
2018-05-08T10:23:35.589Z,30.82
2018-05-08T10:24:35.596Z,31.40
2018-05-08T10:25:35.615Z,31.41
2018-05-08T10:26:35.621Z,30.05
2018-05-08T10:27:35.617Z,30.64
2018-05-08T10:28:35.639Z,29.57
2018-05-08T10:29:35.644Z,29.28
2018-05-08T10:30:35.648Z,29.38
2018-05-08T10:31:35.692Z,29.76
2018-05-08T10:32:35.659Z,29.49
2018-05-08T10:33:35.664Z,29.68
2018-05-08T10:34:35.680Z,30.46
2018-05-08T10:35:35.696Z,30.26
2018-05-08T10:36:35.732Z,30.25
2018-05-08T10:37:35.842Z,30.46
2018-05-08T10:38:35.710Z,29.76
2018-05-08T10:39:35.710Z,29.47
2018-05-08T10:40:35.727Z,28.59
2018-05-08T10:41:35.725Z,28.11
2018-05-08T10:42:35.743Z,27.82
2018-05-08T10:43:35.747Z,27.70
2018-05-08T10:44:35.744Z,27.69
2018-05-08T10:45:35.830Z,28.38
2018-05-08T10:46:35.751Z,28.38
2018-05-08T10:47:35.748Z,28.96
2018-05-08T10:48:35.896Z,29.43
2018-05-08T10:49:35.774Z,29.62
2018-05-08T10:50:35.768Z,29.82
2018-05-08T10:51:35.775Z,29.72
2018-05-08T10:52:35.815Z,29.71
2018-05-08T10:53:35.783Z,29.22
2018-05-08T10:54:35.804Z,29.80
2018-05-08T10:55:35.797Z,30.27
2018-05-08T10:56:37.015Z,30.95
2018-05-08T10:57:35.791Z,31.24
2018-05-08T10:58:35.790Z,32.50
2018-05-08T10:59:35.813Z,32.68
2018-05-08T11:00:35.867Z,31.71
2018-05-08T11:01:37.467Z,32.10
2018-05-08T11:02:35.805Z,31.71
2018-05-08T11:03:35.788Z,32.39
2018-05-08T11:04:35.807Z,32.68
2018-05-08T11:05:36.374Z,31.23
2018-05-08T11:06:35.797Z,30.94
2018-05-08T11:07:35.814Z,31.41
2018-05-08T11:08:35.805Z,31.50
2018-05-08T11:09:35.834Z,32.47
2018-05-08T11:10:35.810Z,32.76
2018-05-08T11:11:35.815Z,32.67
2018-05-08T11:12:35.848Z,32.67
2018-05-08T11:13:35.817Z,31.87
2018-05-08T11:14:35.845Z,31.29
2018-05-08T11:15:35.800Z,31.10
2018-05-08T11:16:35.810Z,30.81
2018-05-08T11:17:35.810Z,30.44
2018-05-08T11:18:35.804Z,30.42
2018-05-08T11:19:35.835Z,30.91
2018-05-08T11:20:35.802Z,31.39
2018-05-08T11:21:35.802Z,31.50
2018-05-08T11:22:35.807Z,31.41
2018-05-08T11:23:35.808Z,30.54
2018-05-08T11:24:35.835Z,30.15
2018-05-08T11:25:35.799Z,29.38
2018-05-08T11:26:36.121Z,29.77
2018-05-08T11:27:35.796Z,29.38
2018-05-08T11:28:35.804Z,30.07
2018-05-08T11:29:35.807Z,30.27
2018-05-08T11:30:35.796Z,29.50
2018-05-08T11:31:35.852Z,28.93
2018-05-08T11:32:35.808Z,28.26
2018-05-08T11:33:35.821Z,28.28
2018-05-08T11:34:35.815Z,28.00
2018-05-08T11:35:35.815Z,27.92
2018-05-08T11:36:35.953Z,28.13
2018-05-08T11:37:35.816Z,28.63
2018-05-08T11:38:35.816Z,28.25
2018-05-08T11:39:35.829Z,28.45
2018-05-08T11:40:35.829Z,27.89
2018-05-08T11:41:35.832Z,27.51
2018-05-08T11:42:35.841Z,27.03
2018-05-08T11:43:35.884Z,25.88
2018-05-08T11:44:35.930Z,25.20
2018-05-08T11:45:35.855Z,24.91
2018-05-08T11:46:35.856Z,24.53
2018-05-08T11:47:35.867Z,23.26
2018-05-08T11:48:35.921Z,22.19
2018-05-08T11:49:35.884Z,21.71
2018-05-08T11:50:35.891Z,22.00
2018-05-08T11:51:35.900Z,22.41
2018-05-08T11:52:35.900Z,22.41
2018-05-08T11:53:35.912Z,21.44
2018-05-08T11:54:35.922Z,22.22
2018-05-08T11:55:35.985Z,22.23
2018-05-08T11:56:35.938Z,21.74
2018-05-08T11:57:35.939Z,22.03
2018-05-08T11:58:36.128Z,21.45
2018-05-08T11:59:35.959Z,21.36
2018-05-08T12:00:35.976Z,22.14
2018-05-08T12:01:35.984Z,22.14
2018-05-08T12:02:36.050Z,22.24
2018-05-08T12:03:35.996Z,21.45
2018-05-08T12:04:36.024Z,21.16
2018-05-08T12:05:36.011Z,21.74
2018-05-08T12:06:36.018Z,22.13
2018-05-08T12:07:36.032Z,22.12
2018-05-08T12:08:36.037Z,21.92
2018-05-08T12:09:36.124Z,22.21
2018-05-08T12:10:36.048Z,22.49
2018-05-08T12:11:36.064Z,22.69
2018-05-08T12:12:36.067Z,22.58
2018-05-08T12:13:36.074Z,22.47
2018-05-08T12:14:36.140Z,21.97
2018-05-08T12:15:36.109Z,21.68
2018-05-08T12:16:36.098Z,22.06
2018-05-08T12:17:36.085Z,22.14
2018-05-08T12:18:36.173Z,22.05
2018-05-08T12:19:36.105Z,22.52
2018-05-08T12:20:36.117Z,23.10
2018-05-08T12:21:36.141Z,23.39
2018-05-08T12:22:36.111Z,23.57
2018-05-08T12:23:36.123Z,24.05
2018-05-08T12:24:36.150Z,23.46
2018-05-08T12:25:36.230Z,23.95
2018-05-08T12:26:36.175Z,24.43
2018-05-08T12:27:36.139Z,24.62
2018-05-08T12:28:36.180Z,24.99
2018-05-08T12:29:36.139Z,25.38
2018-05-08T12:30:36.294Z,26.07
2018-05-08T12:31:36.166Z,26.07
2018-05-08T12:32:36.160Z,25.76
2018-05-08T12:33:36.160Z,25.67
2018-05-08T12:34:36.160Z,25.96
2018-05-08T12:35:36.158Z,26.34
2018-05-08T12:36:36.465Z,26.34
2018-05-08T12:37:36.159Z,26.83
2018-05-08T12:38:36.172Z,26.92
2018-05-08T12:39:36.219Z,27.01
2018-05-08T12:40:36.187Z,27.40
2018-05-08T12:41:36.166Z,27.69
2018-05-08T12:42:36.180Z,28.38
2018-05-08T12:43:36.228Z,28.55
2018-05-08T12:44:36.183Z,28.45
2018-05-08T12:45:36.205Z,27.68
2018-05-08T12:46:36.183Z,27.19
2018-05-08T12:47:36.208Z,27.29
2018-05-08T12:48:36.189Z,27.47
2018-05-08T12:49:36.186Z,27.47
2018-05-08T12:50:36.204Z,27.96
2018-05-08T12:51:36.312Z,27.67
2018-05-08T12:52:36.181Z,27.47